createdAt,value
2023-04-13T00:00:18.579Z,10.77
2023-04-13T00:02:46.705Z,10.76
2023-04-13T00:05:14.013Z,10.78
2023-04-13T00:07:44.560Z,10.81
2023-04-13T00:10:11.646Z,10.82
2023-04-13T00:12:41.046Z,10.80
2023-04-13T00:15:08.431Z,10.78
2023-04-13T00:17:38.029Z,10.79
2023-04-13T00:20:12.962Z,10.79
2023-04-13T00:22:40.860Z,10.77
2023-04-13T00:25:09.328Z,10.75
2023-04-13T00:27:39.135Z,10.74
2023-04-13T00:30:16.258Z,10.73
2023-04-13T00:32:52.120Z,10.70
2023-04-13T00:35:19.988Z,10.68
2023-04-13T00:37:49.943Z,10.70
2023-04-13T00:40:19.295Z,10.69
2023-04-13T00:42:48.189Z,10.68
2023-04-13T00:45:15.477Z,10.68
2023-04-13T00:47:43.443Z,10.63
2023-04-13T00:50:20.798Z,10.58
2023-04-13T00:52:48.421Z,10.55
2023-04-13T00:55:20.759Z,10.56
2023-04-13T00:57:52.676Z,10.56
2023-04-13T01:00:20.897Z,10.56
2023-04-13T01:02:50.805Z,10.54
2023-04-13T01:05:19.186Z,10.54
2023-04-13T01:07:58.529Z,10.53
2023-04-13T01:10:48.792Z,10.55
2023-04-13T01:13:56.727Z,10.53
2023-04-13T01:16:31.119Z,10.52
2023-04-13T01:18:59.115Z,10.47
2023-04-13T01:21:29.226Z,10.42
2023-04-13T01:24:03.860Z,10.32
2023-04-13T01:26:38.930Z,10.24
2023-04-13T01:29:08.015Z,10.16
2023-04-13T01:31:35.935Z,10.10
2023-04-13T01:34:03.618Z,10.02
2023-04-13T01:36:33.699Z,9.96
2023-04-13T01:39:01.991Z,9.90
2023-04-13T01:41:31.046Z,9.86
2023-04-13T01:43:59.992Z,9.83
2023-04-13T01:46:31.129Z,9.80
2023-04-13T01:49:16.368Z,9.78
2023-04-13T01:52:02.200Z,9.76
2023-04-13T01:54:31.678Z,9.75
2023-04-13T01:57:00.377Z,9.74
2023-04-13T01:59:28.247Z,9.71
2023-04-13T02:01:57.652Z,9.69
2023-04-13T02:04:25.779Z,9.68
2023-04-13T02:06:54.777Z,9.65
2023-04-13T02:09:32.511Z,9.63
2023-04-13T02:11:59.892Z,9.63
2023-04-13T02:14:33.792Z,9.63
2023-04-13T02:17:05.932Z,9.61
2023-04-13T02:19:34.900Z,9.59
2023-04-13T02:22:08.789Z,9.56
2023-04-13T02:24:35.935Z,9.52
2023-04-13T02:27:04.173Z,9.51
2023-04-13T02:29:32.436Z,9.52
2023-04-13T02:32:01.881Z,9.53
2023-04-13T02:34:30.779Z,9.53
2023-04-13T02:36:57.803Z,9.52
2023-04-13T02:39:27.138Z,9.49
2023-04-13T02:41:58.035Z,9.47
2023-04-13T02:44:25.819Z,9.45
2023-04-13T02:46:55.641Z,9.43
2023-04-13T02:49:25.108Z,9.41
2023-04-13T02:52:15.954Z,9.39
2023-04-13T02:54:54.664Z,9.39
2023-04-13T02:57:26.951Z,9.36
2023-04-13T02:59:57.170Z,9.33
2023-04-13T03:02:28.067Z,9.29
2023-04-13T03:04:56.123Z,9.26
2023-04-13T03:07:24.672Z,9.22
2023-04-13T03:09:53.250Z,9.18
2023-04-13T03:12:20.439Z,9.14
2023-04-13T03:16:06.932Z,9.10
2023-04-13T03:18:35.731Z,9.03
2023-04-13T03:21:05.435Z,8.97
2023-04-13T03:23:37.210Z,8.90
2023-04-13T03:26:06.339Z,8.84
2023-04-13T03:28:33.857Z,8.80
2023-04-13T03:31:00.858Z,8.77
2023-04-13T03:33:29.273Z,8.75
2023-04-13T03:35:57.666Z,8.73
2023-04-13T03:38:27.777Z,8.72
2023-04-13T03:40:54.243Z,8.70
2023-04-13T03:43:20.947Z,8.69
2023-04-13T03:45:54.151Z,8.67
2023-04-13T03:48:20.981Z,8.68
2023-04-13T03:50:47.430Z,8.69
2023-04-13T03:53:15.927Z,8.71
2023-04-13T03:55:43.836Z,8.71
2023-04-13T03:58:11.627Z,8.72
2023-04-13T04:00:41.633Z,8.73
2023-04-13T04:03:17.041Z,8.72
2023-04-13T04:05:52.425Z,8.74
2023-04-13T04:08:20.674Z,8.74
2023-04-13T04:10:48.387Z,8.73
2023-04-13T04:13:15.654Z,8.72
2023-04-13T04:15:46.085Z,8.70
2023-04-13T04:18:13.550Z,8.72
2023-04-13T04:20:40.459Z,8.74
2023-04-13T04:23:10.588Z,8.76
2023-04-13T04:25:46.412Z,8.78
2023-04-13T04:28:17.594Z,8.81
2023-04-13T04:30:45.529Z,8.84
2023-04-13T04:33:13.905Z,8.87
2023-04-13T04:35:49.688Z,8.88
2023-04-13T04:38:23.977Z,8.89
2023-04-13T04:40:56.893Z,8.94
2023-04-13T04:43:25.237Z,8.97
2023-04-13T04:45:52.025Z,8.99
2023-04-13T04:48:19.869Z,9.04
2023-04-13T04:50:52.163Z,9.06
2023-04-13T04:53:18.824Z,9.06
2023-04-13T04:55:46.721Z,9.03
2023-04-13T04:58:31.893Z,8.98
2023-04-13T05:00:59.121Z,8.99
2023-04-13T05:03:31.963Z,9.02
2023-04-13T05:06:08.241Z,9.04
2023-04-13T05:08:35.994Z,9.04
2023-04-13T05:11:05.825Z,9.04
2023-04-13T05:13:32.895Z,9.04
2023-04-13T05:16:10.111Z,9.06
2023-04-13T05:18:45.880Z,9.08
2023-04-13T05:21:19.264Z,9.15
2023-04-13T05:23:53.745Z,9.26
2023-04-13T05:26:20.296Z,9.43
2023-04-13T05:28:47.357Z,9.62
2023-04-13T05:31:15.369Z,9.76
2023-04-13T05:33:46.198Z,9.86
2023-04-13T05:43:00.970Z,9.84
2023-04-13T05:45:30.508Z,9.76
2023-04-13T05:48:09.897Z,9.76
2023-04-13T05:50:37.981Z,9.78
2023-04-13T05:53:06.158Z,9.75
2023-04-13T05:55:43.139Z,9.71
2023-04-13T05:58:11.336Z,9.66
2023-04-13T06:00:39.327Z,9.66
2023-04-13T06:03:08.975Z,9.64
2023-04-13T06:05:38.910Z,9.69
2023-04-13T06:08:43.583Z,9.80
2023-04-13T06:11:10.368Z,9.87
2023-04-13T06:13:41.174Z,9.97
2023-04-13T06:16:10.791Z,10.06
2023-04-13T06:18:37.567Z,10.24
2023-04-13T06:21:06.856Z,10.50
2023-04-13T06:23:34.555Z,10.67
2023-04-13T06:26:05.038Z,10.66
2023-04-13T06:28:49.187Z,10.66
2023-04-13T06:31:19.130Z,10.69
2023-04-13T06:33:50.115Z,10.68
2023-04-13T06:36:22.776Z,10.63
2023-04-13T06:38:51.787Z,10.59
2023-04-13T06:41:19.998Z,10.55
2023-04-13T06:43:48.123Z,10.45
2023-04-13T06:46:20.058Z,10.38
2023-04-13T06:48:51.650Z,10.44
2023-04-13T06:51:21.731Z,10.47
2023-04-13T06:53:49.291Z,10.43
2023-04-13T06:56:19.687Z,10.48
2023-04-13T06:58:46.626Z,10.50
2023-04-13T07:01:15.907Z,10.52
2023-04-13T07:03:53.719Z,10.50
2023-04-13T07:06:21.717Z,10.40
2023-04-13T07:08:48.465Z,10.35
2023-04-13T07:11:16.140Z,10.34
2023-04-13T07:13:44.080Z,10.33
2023-04-13T07:16:14.081Z,10.29
2023-04-13T07:18:43.421Z,10.29
2023-04-13T07:21:11.290Z,10.26
2023-04-13T07:24:13.094Z,10.29
2023-04-13T07:26:42.381Z,10.31
2023-04-13T07:29:12.891Z,10.31
2023-04-13T07:31:42.311Z,10.25
2023-04-13T07:34:10.253Z,10.18
2023-04-13T07:36:41.755Z,10.20
2023-04-13T07:39:11.185Z,10.12
2023-04-13T07:41:40.301Z,10.13
2023-04-13T07:44:10.796Z,10.15
2023-04-13T07:46:39.344Z,10.10
2023-04-13T07:49:07.055Z,10.02
2023-04-13T07:51:43.125Z,9.95
2023-04-13T07:54:10.177Z,9.91
2023-04-13T07:56:36.826Z,9.94
2023-04-13T07:59:04.343Z,10.00
2023-04-13T08:01:33.203Z,10.08
2023-04-13T08:04:01.397Z,10.12
2023-04-13T08:06:34.004Z,10.14
2023-04-13T08:09:02.253Z,10.13
2023-04-13T08:11:29.658Z,10.12
2023-04-13T08:14:03.371Z,10.16
2023-04-13T08:16:33.932Z,10.23
2023-04-13T08:19:02.801Z,10.27
2023-04-13T08:21:32.134Z,10.29
2023-04-13T08:24:00.819Z,10.30
2023-04-13T08:26:27.243Z,10.32
2023-04-13T08:28:53.478Z,10.35
2023-04-13T08:31:21.149Z,10.27
2023-04-13T08:33:57.156Z,10.23
2023-04-13T08:36:24.087Z,10.23
2023-04-13T08:38:59.412Z,10.14
2023-04-13T08:41:27.471Z,10.10
2023-04-13T08:43:54.254Z,10.07
2023-04-13T08:46:24.096Z,10.07
2023-04-13T08:48:54.400Z,10.11
2023-04-13T08:51:23.948Z,10.09
2023-04-13T08:53:52.590Z,10.11
2023-04-13T08:56:31.076Z,10.12
2023-04-13T08:59:07.035Z,10.16
2023-04-13T09:01:36.173Z,10.20
2023-04-13T09:04:10.009Z,10.20
2023-04-13T09:06:40.457Z,10.15
2023-04-13T09:09:15.256Z,10.15
2023-04-13T09:11:42.488Z,10.21
2023-04-13T09:14:09.779Z,10.26
2023-04-13T09:16:42.658Z,10.35
2023-04-13T09:19:28.778Z,10.46
2023-04-13T09:21:55.608Z,10.50
2023-04-13T09:24:22.270Z,10.50
2023-04-13T09:26:54.553Z,10.51
2023-04-13T09:29:23.879Z,10.50
2023-04-13T09:31:51.816Z,10.44
2023-04-13T09:34:27.762Z,10.43
2023-04-13T09:36:55.765Z,10.43
2023-04-13T09:39:27.186Z,10.50
2023-04-13T09:41:54.447Z,10.52
2023-04-13T09:44:27.650Z,10.48
2023-04-13T09:47:01.322Z,10.42
2023-04-13T09:49:38.480Z,10.41
2023-04-13T09:52:24.483Z,10.45
2023-04-13T09:54:58.028Z,10.56
2023-04-13T09:57:27.971Z,10.63
2023-04-13T09:59:55.874Z,10.61
2023-04-13T10:02:22.690Z,10.65
2023-04-13T10:04:49.246Z,10.73
2023-04-13T10:07:15.687Z,10.74
2023-04-13T10:09:47.174Z,10.84
2023-04-13T10:12:14.114Z,10.95
2023-04-13T10:14:42.931Z,11.05
2023-04-13T10:17:19.109Z,11.10
2023-04-13T10:19:46.357Z,11.19
2023-04-13T10:22:12.592Z,11.30
2023-04-13T10:24:43.080Z,11.36
2023-04-13T10:27:17.336Z,11.25
2023-04-13T10:29:43.747Z,11.04
2023-04-13T10:32:21.770Z,10.85
2023-04-13T10:34:48.286Z,10.77
2023-04-13T10:37:25.677Z,10.81
2023-04-13T10:40:05.598Z,10.85
2023-04-13T10:45:24.027Z,10.93
2023-04-13T10:47:50.384Z,10.99
2023-04-13T10:50:21.886Z,11.00
2023-04-13T10:53:07.039Z,10.95
2023-04-13T10:55:33.777Z,10.82
2023-04-13T10:58:03.052Z,10.76
2023-04-13T11:00:44.194Z,10.78
2023-04-13T11:03:14.381Z,10.78
2023-04-13T11:05:42.861Z,10.80
2023-04-13T11:08:09.571Z,10.84
2023-04-13T11:10:36.048Z,10.81
2023-04-13T11:13:02.434Z,10.72
2023-04-13T11:15:33.158Z,10.66
2023-04-13T11:18:00.274Z,10.62
2023-04-13T11:20:36.783Z,10.68
2023-04-13T11:23:15.341Z,10.76
2023-04-13T11:25:57.589Z,10.84
2023-04-13T11:28:35.365Z,10.81
2023-04-13T11:31:02.142Z,10.86
2023-04-13T11:33:31.093Z,10.81
2023-04-13T11:36:00.678Z,10.85
2023-04-13T11:38:28.248Z,10.95
2023-04-13T11:41:15.574Z,11.05
2023-04-13T11:43:50.663Z,11.18
2023-04-13T11:46:24.273Z,11.25
2023-04-13T11:48:51.895Z,11.32
2023-04-13T11:51:21.566Z,11.41
2023-04-13T11:53:49.996Z,11.50
2023-04-13T11:56:20.237Z,11.59
2023-04-13T11:58:52.624Z,11.60
2023-04-13T12:01:26.295Z,11.52
2023-04-13T12:04:12.780Z,11.47
2023-04-13T12:06:44.844Z,11.49
2023-04-13T12:09:17.814Z,11.50
2023-04-13T12:11:52.125Z,11.41
2023-04-13T12:14:47.657Z,11.39
2023-04-13T12:17:26.272Z,11.38
2023-04-13T12:20:00.544Z,11.38
2023-04-13T12:22:53.342Z,11.37
2023-04-13T12:25:35.596Z,11.41
2023-04-13T12:28:02.533Z,11.40
2023-04-13T12:30:34.754Z,11.38
2023-04-13T12:33:20.698Z,11.33
2023-04-13T12:35:46.914Z,11.30
2023-04-13T12:38:13.984Z,11.32
2023-04-13T12:40:42.045Z,11.34
2023-04-13T12:43:08.395Z,11.33
2023-04-13T12:45:36.228Z,11.33
2023-04-13T12:48:02.939Z,11.35
2023-04-13T12:50:31.953Z,11.39
2023-04-13T12:53:00.200Z,11.46
2023-04-13T12:55:26.430Z,11.45
2023-04-13T12:57:54.319Z,11.50
2023-04-13T13:00:21.667Z,11.55
2023-04-13T13:02:52.164Z,11.59
2023-04-13T13:05:23.308Z,11.64
2023-04-13T13:07:49.759Z,11.65
2023-04-13T13:10:29.055Z,11.62
2023-04-13T13:12:57.995Z,11.61
2023-04-13T13:15:24.321Z,11.65
2023-04-13T13:17:51.037Z,11.67
2023-04-13T13:20:17.890Z,11.69
2023-04-13T13:22:45.273Z,11.70
2023-04-13T13:25:11.611Z,11.65
2023-04-13T13:28:05.612Z,11.65
2023-04-13T13:30:25.968Z,11.62
2023-04-13T13:32:54.046Z,11.52
2023-04-13T13:35:20.790Z,11.49
2023-04-13T13:37:47.149Z,11.50
2023-04-13T13:40:13.595Z,11.47
2023-04-13T13:42:50.572Z,11.42
2023-04-13T13:45:17.959Z,11.42
2023-04-13T13:47:52.628Z,11.45
2023-04-13T13:50:20.964Z,11.49
2023-04-13T13:53:02.269Z,11.45
2023-04-13T13:55:31.043Z,11.41
2023-04-13T13:58:00.166Z,11.36
2023-04-13T14:00:26.559Z,11.32
2023-04-13T14:02:53.413Z,11.30
2023-04-13T14:05:21.492Z,11.33
2023-04-13T14:07:47.756Z,11.32
2023-04-13T14:10:13.985Z,11.29
2023-04-13T14:12:43.344Z,11.27
2023-04-13T14:15:14.394Z,11.29
2023-04-13T14:17:52.933Z,11.34
2023-04-13T14:20:33.866Z,11.33
2023-04-13T14:23:00.350Z,11.31
2023-04-13T14:25:27.127Z,11.31
2023-04-13T14:27:53.636Z,11.32
2023-04-13T14:30:26.240Z,11.31
2023-04-13T14:32:54.497Z,11.28
2023-04-13T14:35:20.991Z,11.22
2023-04-13T14:37:47.315Z,11.15
2023-04-13T14:40:16.301Z,11.09
2023-04-13T14:42:43.186Z,11.06
2023-04-13T14:45:12.822Z,11.01
2023-04-13T14:47:41.184Z,10.94
2023-04-13T14:50:07.964Z,10.90
2023-04-13T14:52:34.330Z,10.82
2023-04-13T14:55:01.290Z,10.78
2023-04-13T14:57:28.245Z,10.76
2023-04-13T14:59:56.355Z,10.74
2023-04-13T15:02:23.526Z,10.67
2023-04-13T15:04:50.332Z,10.63
2023-04-13T15:07:18.185Z,10.59
2023-04-13T15:09:44.562Z,10.54
2023-04-13T15:12:13.508Z,10.47
2023-04-13T15:14:45.915Z,10.43
2023-04-13T15:17:12.605Z,10.42
2023-04-13T15:19:39.982Z,10.43
2023-04-13T15:22:06.831Z,10.42
2023-04-13T15:24:34.435Z,10.42
2023-04-13T15:27:00.660Z,10.47
2023-04-13T15:29:27.351Z,10.50
2023-04-13T15:34:20.571Z,10.51
2023-04-13T15:37:04.051Z,10.47
2023-04-13T15:39:31.707Z,10.41
2023-04-13T15:42:01.081Z,10.42
2023-04-13T15:44:28.474Z,10.42
2023-04-13T15:46:55.563Z,10.40
2023-04-13T15:49:22.664Z,10.35
2023-04-13T15:52:25.953Z,10.30
2023-04-13T15:54:53.720Z,10.20
2023-04-13T15:57:21.389Z,10.14
2023-04-13T15:59:48.497Z,10.07
2023-04-13T16:02:15.252Z,9.98
2023-04-13T16:04:42.204Z,9.92
2023-04-13T16:07:14.538Z,9.87
2023-04-13T16:09:55.712Z,9.87
2023-04-13T16:12:25.821Z,9.82
2023-04-13T16:14:55.655Z,9.77
2023-04-13T16:17:31.564Z,9.74
2023-04-13T16:20:17.048Z,9.71
2023-04-13T16:22:53.197Z,9.66
2023-04-13T16:25:20.380Z,9.60
2023-04-13T16:27:47.540Z,9.57
2023-04-13T16:30:17.077Z,9.55
2023-04-13T16:32:48.150Z,9.53
2023-04-13T16:35:16.568Z,9.49
2023-04-13T16:37:43.119Z,9.45
2023-04-13T16:40:12.804Z,9.40
2023-04-13T16:42:39.908Z,9.37
2023-04-13T16:45:09.263Z,9.31
2023-04-13T16:47:38.002Z,9.27
2023-04-13T16:50:06.818Z,9.22
2023-04-13T16:52:34.148Z,9.16
2023-04-13T16:55:04.504Z,9.10
2023-04-13T16:57:31.566Z,9.10
2023-04-13T17:00:00.510Z,9.11
2023-04-13T17:02:31.582Z,9.09
2023-04-13T17:04:58.276Z,9.06
2023-04-13T17:07:28.950Z,9.05
2023-04-13T17:10:17.957Z,9.02
2023-04-13T17:12:44.355Z,9.01
2023-04-13T17:15:11.141Z,9.03
2023-04-13T17:17:46.448Z,9.05
2023-04-13T17:20:16.915Z,9.05
2023-04-13T17:22:44.477Z,9.06
2023-04-13T17:25:16.011Z,9.03
2023-04-13T17:27:43.748Z,9.01
2023-04-13T17:30:11.397Z,8.98
2023-04-13T17:32:39.211Z,8.99
2023-04-13T17:35:06.631Z,8.98
2023-04-13T17:37:33.726Z,8.93
2023-04-13T17:40:01.147Z,8.91
2023-04-13T17:42:28.996Z,8.91
2023-04-13T17:44:55.662Z,8.89
2023-04-13T17:47:24.174Z,8.86
2023-04-13T17:49:50.994Z,8.87
2023-04-13T17:52:17.905Z,8.86
2023-04-13T17:54:47.174Z,8.84
2023-04-13T17:57:13.600Z,8.83
2023-04-13T17:59:41.367Z,8.83
2023-04-13T18:02:08.568Z,8.84
2023-04-13T18:04:37.207Z,8.85
2023-04-13T18:07:03.827Z,8.86
2023-04-13T18:09:30.800Z,8.89
2023-04-13T18:12:05.327Z,8.91
2023-04-13T18:14:33.274Z,8.90
2023-04-13T18:17:00.382Z,8.89
2023-04-13T18:19:26.949Z,8.87
2023-04-13T18:21:58.505Z,8.88
2023-04-13T18:24:24.965Z,8.88
2023-04-13T18:26:51.916Z,8.88
2023-04-13T18:29:23.000Z,8.87
2023-04-13T18:31:50.689Z,8.84
2023-04-13T18:34:17.219Z,8.84
2023-04-13T18:36:44.476Z,8.87
2023-04-13T18:39:11.011Z,8.89
2023-04-13T18:47:53.465Z,8.96
2023-04-13T18:50:21.018Z,8.95
2023-04-13T18:52:48.902Z,8.93
2023-04-13T18:55:16.466Z,8.92
2023-04-13T18:57:51.379Z,8.89
2023-04-13T19:00:19.352Z,8.84
2023-04-13T19:02:52.621Z,8.79
2023-04-13T19:05:20.089Z,8.76
2023-04-13T19:07:59.382Z,8.74
2023-04-13T19:10:28.359Z,8.73
2023-04-13T19:12:55.996Z,8.69
2023-04-13T19:15:24.358Z,8.67
2023-04-13T19:17:53.686Z,8.67
2023-04-13T19:20:22.353Z,8.68
2023-04-13T19:22:49.357Z,8.69
2023-04-13T19:25:18.645Z,8.69
2023-04-13T19:27:48.168Z,8.68
2023-04-13T19:38:07.817Z,8.67
2023-04-13T19:40:40.081Z,8.67
2023-04-13T19:43:06.622Z,8.70
2023-04-13T19:45:33.248Z,8.68
2023-04-13T19:48:02.322Z,8.70
2023-04-13T19:50:29.738Z,8.72
2023-04-13T19:52:57.821Z,8.73
2023-04-13T19:55:24.482Z,8.75
2023-04-13T19:57:51.101Z,8.75
2023-04-13T20:00:18.616Z,8.74
2023-04-13T20:02:52.621Z,8.73
2023-04-13T20:05:19.887Z,8.69
2023-04-13T20:07:46.435Z,8.67
2023-04-13T20:10:12.954Z,8.64
2023-04-13T20:12:40.991Z,8.56
2023-04-13T20:15:09.190Z,8.51
2023-04-13T20:17:35.664Z,8.49
2023-04-13T20:20:09.638Z,8.47
2023-04-13T20:22:37.687Z,8.46
2023-04-13T20:25:05.444Z,8.43
2023-04-13T20:27:33.850Z,8.40
2023-04-13T20:30:01.009Z,8.38
2023-04-13T20:32:27.828Z,8.38
2023-04-13T20:34:54.983Z,8.36
2023-04-13T20:37:21.434Z,8.32
2023-04-13T20:39:52.356Z,8.30
2023-04-13T20:42:19.934Z,8.30
2023-04-13T20:44:56.909Z,8.27
2023-04-13T20:47:28.123Z,8.18
2023-04-13T20:49:56.818Z,8.17
2023-04-13T20:52:23.609Z,8.18
2023-04-13T20:54:51.150Z,8.18
2023-04-13T20:57:19.375Z,8.16
2023-04-13T20:59:47.321Z,8.11
2023-04-13T21:02:17.484Z,8.10
2023-04-13T21:04:45.038Z,8.08
2023-04-13T21:07:13.284Z,8.09
2023-04-13T21:09:47.797Z,8.08
2023-04-13T21:12:39.413Z,8.02
2023-04-13T21:15:06.398Z,8.07
2023-04-13T21:17:36.929Z,8.07
2023-04-13T21:20:06.047Z,8.02
2023-04-13T21:22:32.487Z,8.01
2023-04-13T21:24:58.799Z,8.03
2023-04-13T21:27:25.210Z,8.06
2023-04-13T21:29:51.536Z,8.08
2023-04-13T21:32:18.113Z,8.08
2023-04-13T21:34:44.884Z,8.05
2023-04-13T21:37:11.043Z,8.04
2023-04-13T21:39:37.921Z,8.05
2023-04-13T21:42:08.425Z,8.05
2023-04-13T21:44:35.280Z,8.00
2023-04-13T21:47:01.789Z,7.94
2023-04-13T21:49:28.228Z,7.93
2023-04-13T21:51:57.249Z,7.85
2023-04-13T21:54:23.805Z,7.80
2023-04-13T21:56:50.400Z,7.82
2023-04-13T21:59:18.184Z,7.80
2023-04-13T22:01:45.156Z,7.80
2023-04-13T22:04:12.517Z,7.83
2023-04-13T22:06:38.841Z,7.79
2023-04-13T22:09:05.894Z,7.81
2023-04-13T22:11:32.369Z,7.84
2023-04-13T22:14:00.055Z,7.86
2023-04-13T22:16:27.751Z,7.88
2023-04-13T22:18:53.993Z,7.87
2023-04-13T22:21:20.521Z,7.86
2023-04-13T22:23:47.568Z,7.87
2023-04-13T22:26:13.883Z,7.88
2023-04-13T22:28:40.333Z,7.91
2023-04-13T22:31:07.841Z,7.93
2023-04-13T22:33:37.763Z,7.87
2023-04-13T22:36:04.603Z,7.86
2023-04-13T22:38:32.914Z,7.90
2023-04-13T22:41:04.849Z,7.92
2023-04-13T22:43:31.259Z,7.90
2023-04-13T22:46:03.184Z,7.87
2023-04-13T22:48:29.871Z,7.87
2023-04-13T22:50:57.535Z,7.84
2023-04-13T22:53:29.646Z,7.82
2023-04-13T22:55:55.994Z,7.79
2023-04-13T22:58:22.531Z,7.80
2023-04-13T23:00:50.482Z,7.78
2023-04-13T23:03:17.392Z,7.74
2023-04-13T23:05:44.685Z,7.74
2023-04-13T23:08:11.015Z,7.75
2023-04-13T23:10:37.858Z,7.73
2023-04-13T23:13:04.574Z,7.69
2023-04-13T23:15:31.131Z,7.69
2023-04-13T23:17:57.449Z,7.68
2023-04-13T23:20:23.945Z,7.70
2023-04-13T23:22:50.440Z,7.72
2023-04-13T23:25:17.222Z,7.73
2023-04-13T23:27:44.433Z,7.69
2023-04-13T23:30:11.177Z,7.62
2023-04-13T23:32:39.159Z,7.60
2023-04-13T23:35:06.041Z,7.63
2023-04-13T23:37:32.245Z,7.64
2023-04-13T23:39:58.960Z,7.65
2023-04-13T23:42:26.071Z,7.65
2023-04-13T23:44:55.724Z,7.63
2023-04-13T23:47:22.715Z,7.60
2023-04-13T23:49:50.874Z,7.61
2023-04-13T23:52:18.241Z,7.60
2023-04-13T23:54:44.793Z,7.58
2023-04-13T23:57:12.092Z,7.55
2023-04-13T23:59:38.682Z,7.51
